createdAt,value
2017-12-27T00:01:26.773Z,5.22
2017-12-27T00:03:59.225Z,6.00
2017-12-27T00:06:31.590Z,6.30
2017-12-27T00:09:04.169Z,6.00
2017-12-27T00:14:40.188Z,7.12
2017-12-27T00:17:12.809Z,6.43
2017-12-27T00:19:45.111Z,5.95
2017-12-27T00:22:18.088Z,6.68
2017-12-27T00:24:50.420Z,7.37
2017-12-27T00:27:23.565Z,7.57
2017-12-27T00:29:56.132Z,5.70
2017-12-27T00:32:22.389Z,6.10
2017-12-27T00:34:48.782Z,5.87
2017-12-27T00:37:15.216Z,5.93
2017-12-27T00:39:41.640Z,6.15
2017-12-27T00:42:08.049Z,5.65
2017-12-27T00:44:34.553Z,6.03
2017-12-27T00:47:01.753Z,6.70
2017-12-27T00:49:28.155Z,6.40
2017-12-27T00:51:55.360Z,6.05
2017-12-27T00:54:21.728Z,6.53
2017-12-27T00:56:48.878Z,6.53
2017-12-27T00:59:16.033Z,6.12
2017-12-27T01:01:43.135Z,5.18
2017-12-27T01:04:09.537Z,6.05
2017-12-27T01:06:36.005Z,6.50
2017-12-27T01:09:02.437Z,4.95
2017-12-27T01:11:28.888Z,5.43
2017-12-27T01:13:55.264Z,6.22
2017-12-27T01:16:21.806Z,4.68
2017-12-27T01:18:48.165Z,4.72
2017-12-27T01:21:14.697Z,5.55
2017-12-27T01:23:41.086Z,4.62
2017-12-27T01:26:07.492Z,5.30
2017-12-27T01:28:34.624Z,4.07
2017-12-27T01:31:01.021Z,3.72
2017-12-27T01:33:27.505Z,4.25
2017-12-27T01:35:54.653Z,4.85
2017-12-27T01:38:21.801Z,3.78
2017-12-27T01:40:48.937Z,3.72
2017-12-27T01:43:15.329Z,4.20
2017-12-27T01:45:41.750Z,3.90
2017-12-27T01:48:08.170Z,3.97
2017-12-27T01:50:34.565Z,4.10
2017-12-27T01:53:00.938Z,3.65
2017-12-27T01:55:27.402Z,3.42
2017-12-27T01:57:53.789Z,3.85
2017-12-27T02:00:20.194Z,3.72
2017-12-27T02:02:46.581Z,3.85
2017-12-27T02:05:12.914Z,3.65
2017-12-27T02:07:39.297Z,3.65
2017-12-27T02:10:06.397Z,4.00
2017-12-27T02:12:32.924Z,3.70
2017-12-27T02:14:59.304Z,3.80
2017-12-27T02:17:25.692Z,3.83
2017-12-27T02:19:52.112Z,4.32
2017-12-27T02:22:18.499Z,4.18
2017-12-27T02:24:44.916Z,5.03
2017-12-27T02:27:11.457Z,3.08
2017-12-27T02:29:37.814Z,3.80
2017-12-27T02:32:04.221Z,4.32
2017-12-27T02:34:30.649Z,3.90
2017-12-27T02:37:04.077Z,4.30
2017-12-27T02:42:36.783Z,3.70
2017-12-27T02:45:03.170Z,3.97
2017-12-27T02:47:29.581Z,4.05
2017-12-27T02:49:55.984Z,3.45
2017-12-27T02:52:22.360Z,4.80
2017-12-27T02:54:48.732Z,4.00
2017-12-27T02:57:15.988Z,2.30
2017-12-27T02:59:42.385Z,4.18
2017-12-27T03:02:08.809Z,4.12
2017-12-27T03:04:35.201Z,4.55
2017-12-27T03:07:01.629Z,4.00
2017-12-27T03:09:28.002Z,4.22
2017-12-27T03:11:54.421Z,4.80
2017-12-27T03:14:20.809Z,4.15
2017-12-27T03:16:47.276Z,3.87
2017-12-27T03:19:13.736Z,4.75
2017-12-27T03:21:40.111Z,5.30
2017-12-27T03:24:06.561Z,4.15
2017-12-27T03:26:32.958Z,4.70
2017-12-27T03:29:00.231Z,5.10
2017-12-27T03:31:26.635Z,3.72
2017-12-27T03:33:53.753Z,3.47
2017-12-27T03:36:20.163Z,4.10
2017-12-27T03:38:46.547Z,3.55
2017-12-27T03:41:13.698Z,2.65
2017-12-27T03:43:40.860Z,2.70
2017-12-27T03:46:07.965Z,3.15
2017-12-27T03:48:34.397Z,2.90
2017-12-27T03:51:00.760Z,2.80
2017-12-27T03:53:27.945Z,3.10
2017-12-27T03:55:55.276Z,2.67
2017-12-27T03:58:22.417Z,2.87
2017-12-27T04:00:49.629Z,2.60
2017-12-27T04:03:16.118Z,3.40
2017-12-27T04:05:42.535Z,2.40
2017-12-27T04:08:09.660Z,2.42
2017-12-27T04:10:36.029Z,2.08
2017-12-27T04:13:02.540Z,2.25
2017-12-27T04:15:29.640Z,2.62
2017-12-27T04:17:56.072Z,2.33
2017-12-27T04:20:22.476Z,2.40
2017-12-27T04:22:48.844Z,2.35
2017-12-27T04:25:15.247Z,3.65
2017-12-27T04:27:41.682Z,3.00
2017-12-27T04:30:08.045Z,2.92
2017-12-27T04:32:34.531Z,3.78
2017-12-27T04:35:00.918Z,2.62
2017-12-27T04:37:27.359Z,2.30
2017-12-27T04:39:53.721Z,2.53
2017-12-27T04:42:20.149Z,1.70
2017-12-27T04:44:47.377Z,2.25
2017-12-27T04:47:14.589Z,1.75
2017-12-27T04:49:40.969Z,1.90
2017-12-27T04:52:08.068Z,2.25
2017-12-27T04:54:34.448Z,1.67
2017-12-27T04:57:01.580Z,1.00
2017-12-27T04:59:28.041Z,1.48
2017-12-27T05:01:55.236Z,0.93
2017-12-27T05:04:21.597Z,1.35
2017-12-27T05:06:47.958Z,1.23
2017-12-27T05:09:14.476Z,1.00
2017-12-27T05:11:41.596Z,1.20
2017-12-27T05:14:07.974Z,1.02
2017-12-27T05:16:34.415Z,1.12
2017-12-27T05:19:00.788Z,1.62
2017-12-27T05:21:27.196Z,1.23
2017-12-27T05:23:53.565Z,1.50
2017-12-27T05:26:19.956Z,0.90
2017-12-27T05:28:46.324Z,1.20
2017-12-27T05:31:12.804Z,1.30
2017-12-27T05:33:39.217Z,1.48
2017-12-27T05:36:06.328Z,1.42
2017-12-27T05:38:32.681Z,1.35
2017-12-27T05:40:59.829Z,1.50
2017-12-27T05:43:26.953Z,1.77
2017-12-27T05:45:53.580Z,1.90
2017-12-27T05:48:19.952Z,1.90
2017-12-27T05:50:47.128Z,1.00
2017-12-27T05:53:13.504Z,1.40
2017-12-27T05:55:39.989Z,2.17
2017-12-27T05:58:06.393Z,1.60
2017-12-27T06:00:33.492Z,1.25
2017-12-27T06:02:59.901Z,1.95
2017-12-27T06:05:26.300Z,1.33
2017-12-27T06:07:52.676Z,1.20
2017-12-27T06:10:19.093Z,1.20
2017-12-27T06:12:45.526Z,1.27
2017-12-27T06:15:11.896Z,1.40
2017-12-27T06:17:38.297Z,2.10
2017-12-27T06:20:04.696Z,1.60
2017-12-27T06:22:31.879Z,1.90
2017-12-27T06:24:58.256Z,1.10
2017-12-27T06:27:24.773Z,1.45
2017-12-27T06:29:51.169Z,1.75
2017-12-27T06:32:17.594Z,1.75
2017-12-27T06:34:43.988Z,1.35
2017-12-27T06:37:10.462Z,1.20
2017-12-27T06:39:36.868Z,2.03
2017-12-27T06:42:04.001Z,1.77
2017-12-27T06:44:30.426Z,1.65
2017-12-27T06:46:56.811Z,1.00
2017-12-27T06:49:23.326Z,2.17
2017-12-27T06:51:50.460Z,1.90
2017-12-27T06:54:16.836Z,1.52
2017-12-27T06:56:43.212Z,1.33
2017-12-27T06:59:09.627Z,1.98
2017-12-27T07:01:36.014Z,1.50
2017-12-27T07:04:02.412Z,1.65
2017-12-27T07:06:28.785Z,1.62
2017-12-27T07:08:55.272Z,1.85
2017-12-27T07:11:21.682Z,2.00
2017-12-27T07:13:48.825Z,2.08
2017-12-27T07:16:15.184Z,1.90
2017-12-27T07:18:41.589Z,2.97
2017-12-27T07:21:08.073Z,2.75
2017-12-27T07:23:35.193Z,3.00
2017-12-27T07:26:01.641Z,2.65
2017-12-27T07:28:28.808Z,2.78
2017-12-27T07:30:55.193Z,2.25
2017-12-27T07:33:21.677Z,2.72
2017-12-27T07:35:48.084Z,2.80
2017-12-27T07:38:15.439Z,3.33
2017-12-27T07:40:42.573Z,2.80
2017-12-27T07:43:08.969Z,2.90
2017-12-27T07:45:35.384Z,2.47
2017-12-27T07:48:01.847Z,2.72
2017-12-27T07:50:28.233Z,2.65
2017-12-27T07:52:54.597Z,2.42
2017-12-27T07:55:21.097Z,2.90
2017-12-27T07:57:48.336Z,2.92
2017-12-27T08:00:15.521Z,3.08
2017-12-27T08:02:41.888Z,3.10
2017-12-27T08:05:08.336Z,3.75
2017-12-27T08:07:34.748Z,3.05
2017-12-27T08:10:01.104Z,3.03
2017-12-27T08:12:28.259Z,2.87
2017-12-27T08:14:55.392Z,3.30
2017-12-27T08:17:21.800Z,4.45
2017-12-27T08:19:48.149Z,3.60
2017-12-27T08:22:14.531Z,2.95
2017-12-27T08:24:40.946Z,3.50
2017-12-27T08:27:08.085Z,3.97
2017-12-27T08:29:35.301Z,3.17
2017-12-27T08:32:01.683Z,2.92
2017-12-27T08:34:28.070Z,2.80
2017-12-27T08:36:54.462Z,2.92
2017-12-27T08:39:20.884Z,3.90
2017-12-27T08:41:47.328Z,3.70
2017-12-27T08:44:13.756Z,3.80
2017-12-27T08:46:40.150Z,3.42
2017-12-27T08:49:07.264Z,3.50
2017-12-27T08:51:33.636Z,4.45
2017-12-27T08:54:00.805Z,4.00
2017-12-27T08:56:27.314Z,4.25
2017-12-27T08:58:54.669Z,3.70
2017-12-27T09:01:21.820Z,4.10
2017-12-27T09:03:48.969Z,3.78
2017-12-27T09:06:16.093Z,4.25
2017-12-27T09:08:42.540Z,4.28
2017-12-27T09:11:08.937Z,4.10
2017-12-27T09:13:35.344Z,4.15
2017-12-27T09:16:01.745Z,3.90
2017-12-27T09:18:28.925Z,4.72
2017-12-27T09:20:55.381Z,4.45
2017-12-27T09:23:22.342Z,4.30
2017-12-27T09:25:48.836Z,4.93
2017-12-27T09:28:15.269Z,4.90
2017-12-27T09:30:41.666Z,5.60
2017-12-27T09:33:08.824Z,5.70
2017-12-27T09:35:35.955Z,5.35
2017-12-27T09:38:02.349Z,6.07
2017-12-27T09:40:28.749Z,4.87
2017-12-27T09:42:55.121Z,4.60
2017-12-27T09:45:21.569Z,6.45
2017-12-27T09:47:47.960Z,5.18
2017-12-27T09:50:14.388Z,5.10
2017-12-27T09:52:40.988Z,5.80
2017-12-27T09:55:08.118Z,5.82
2017-12-27T09:57:34.557Z,6.30
2017-12-27T10:00:00.938Z,6.82
2017-12-27T10:02:27.320Z,7.32
2017-12-27T10:04:53.785Z,6.80
2017-12-27T10:07:20.217Z,7.50
2017-12-27T10:09:46.653Z,6.30
2017-12-27T10:12:13.020Z,6.72
2017-12-27T10:14:39.429Z,6.45
2017-12-27T10:17:05.841Z,6.05
2017-12-27T10:19:32.244Z,7.90
2017-12-27T10:21:58.711Z,6.78
2017-12-27T10:24:25.133Z,6.50
2017-12-27T10:26:52.283Z,5.80
2017-12-27T10:29:19.425Z,5.20
2017-12-27T10:31:46.573Z,6.12
2017-12-27T10:34:13.725Z,6.85
2017-12-27T10:36:40.892Z,8.27
2017-12-27T10:39:08.660Z,7.40
2017-12-27T10:41:35.153Z,8.60
2017-12-27T10:44:08.627Z,6.25
2017-12-27T10:46:35.028Z,6.32
2017-12-27T10:49:01.433Z,7.50
2017-12-27T10:51:28.574Z,7.00
2017-12-27T10:53:55.681Z,5.90
2017-12-27T10:56:22.079Z,5.40
2017-12-27T10:58:48.475Z,5.12
2017-12-27T11:01:14.896Z,5.43
2017-12-27T11:03:41.269Z,4.97
2017-12-27T11:06:07.729Z,4.75
2017-12-27T11:08:34.145Z,4.30
2017-12-27T11:11:00.512Z,4.80
2017-12-27T11:13:27.041Z,7.12
2017-12-27T11:15:53.434Z,6.95
2017-12-27T11:18:19.828Z,7.40
2017-12-27T11:20:46.392Z,5.78
2017-12-27T11:23:12.766Z,6.30
2017-12-27T11:25:39.224Z,6.45
2017-12-27T11:28:05.676Z,6.00
2017-12-27T11:30:32.848Z,5.85
2017-12-27T11:32:59.261Z,4.82
2017-12-27T11:35:26.380Z,4.82
2017-12-27T11:37:52.882Z,6.00
2017-12-27T11:40:19.261Z,5.65
2017-12-27T11:42:46.480Z,7.32
2017-12-27T11:45:12.841Z,7.25
2017-12-27T11:47:39.292Z,6.12
2017-12-27T11:50:06.506Z,6.10
2017-12-27T11:52:32.916Z,5.90
2017-12-27T11:54:59.373Z,5.45
2017-12-27T11:57:25.769Z,5.32
2017-12-27T11:59:52.232Z,4.65
2017-12-27T12:02:18.676Z,5.90
2017-12-27T12:04:45.117Z,5.62
2017-12-27T12:07:11.500Z,5.03
2017-12-27T12:09:37.905Z,5.20
2017-12-27T12:12:04.342Z,5.03
2017-12-27T12:14:30.798Z,4.95
2017-12-27T12:17:04.305Z,5.75
2017-12-27T12:19:30.722Z,5.55
2017-12-27T12:21:57.100Z,5.12
2017-12-27T12:24:23.505Z,6.45
2017-12-27T12:26:50.007Z,4.90
2017-12-27T12:29:16.442Z,3.65
2017-12-27T12:31:43.583Z,4.32
2017-12-27T12:34:09.996Z,6.03
2017-12-27T12:36:37.162Z,2.85
2017-12-27T12:39:03.549Z,5.70
2017-12-27T12:41:29.937Z,3.72
2017-12-27T12:43:56.420Z,5.97
2017-12-27T12:46:22.821Z,6.60
2017-12-27T12:48:49.228Z,6.30
2017-12-27T12:51:15.624Z,12.90
2017-12-27T12:53:42.081Z,6.62
2017-12-27T12:56:08.466Z,6.90
2017-12-27T12:58:34.928Z,6.62
2017-12-27T13:01:02.144Z,7.60
2017-12-27T13:03:28.585Z,6.65
2017-12-27T13:05:55.009Z,6.50
2017-12-27T13:08:21.416Z,7.97
2017-12-27T13:10:47.799Z,8.75
2017-12-27T13:13:14.201Z,9.60
2017-12-27T13:15:40.585Z,8.80
2017-12-27T13:18:06.986Z,7.68
2017-12-27T13:20:33.460Z,38.08
2017-12-27T13:22:59.859Z,21.23
2017-12-27T13:25:26.263Z,10.18
2017-12-27T13:27:52.728Z,10.90
2017-12-27T13:30:19.905Z,9.40
2017-12-27T13:32:46.346Z,8.98
2017-12-27T13:35:12.741Z,8.77
2017-12-27T13:37:39.915Z,9.00
2017-12-27T13:40:06.330Z,9.13
2017-12-27T13:42:33.556Z,8.75
2017-12-27T13:44:59.972Z,8.73
2017-12-27T13:47:26.342Z,9.73
2017-12-27T13:49:53.449Z,11.65
2017-12-27T13:52:19.880Z,11.10
2017-12-27T13:54:46.361Z,11.73
2017-12-27T13:57:13.597Z,11.50
2017-12-27T13:59:40.709Z,11.40
2017-12-27T14:02:07.158Z,11.40
2017-12-27T14:04:33.572Z,12.80
2017-12-27T14:06:59.972Z,10.52
2017-12-27T14:09:26.403Z,10.02
2017-12-27T14:11:52.805Z,10.48
2017-12-27T14:14:19.217Z,9.90
2017-12-27T14:16:45.609Z,10.02
2017-12-27T14:19:11.997Z,10.30
2017-12-27T14:21:39.136Z,9.25
2017-12-27T14:24:05.580Z,9.13
2017-12-27T14:26:32.000Z,9.68
2017-12-27T14:28:58.469Z,9.98
2017-12-27T14:31:24.911Z,9.75
2017-12-27T14:33:51.281Z,8.65
2017-12-27T14:36:17.720Z,8.73
2017-12-27T14:38:44.105Z,9.95
2017-12-27T14:41:10.482Z,8.85
2017-12-27T14:43:36.892Z,9.13
2017-12-27T14:46:03.265Z,10.38
2017-12-27T14:48:30.448Z,10.40
2017-12-27T14:50:56.843Z,10.20
2017-12-27T14:53:23.288Z,10.98
2017-12-27T14:55:50.485Z,9.88
2017-12-27T14:58:16.891Z,10.10
2017-12-27T15:00:43.261Z,11.50
2017-12-27T15:03:09.670Z,11.98
2017-12-27T15:05:36.144Z,12.00
2017-12-27T15:08:02.521Z,12.00
2017-12-27T15:10:28.952Z,13.48
2017-12-27T15:12:55.341Z,12.70
2017-12-27T15:15:21.740Z,15.63
2017-12-27T15:17:48.169Z,13.85
2017-12-27T15:20:14.695Z,14.63
2017-12-27T15:22:41.086Z,14.60
2017-12-27T15:25:08.227Z,13.48
2017-12-27T15:27:35.458Z,12.60
2017-12-27T15:30:08.882Z,13.30
2017-12-27T15:32:36.083Z,13.60
2017-12-27T15:35:02.571Z,14.10
2017-12-27T15:37:36.804Z,13.77
2017-12-27T15:40:03.186Z,13.20
2017-12-27T15:42:29.692Z,14.10
2017-12-27T15:44:56.066Z,14.00
2017-12-27T15:47:22.479Z,15.48
2017-12-27T15:49:48.942Z,14.50
2017-12-27T15:52:16.196Z,17.75
2017-12-27T15:54:43.463Z,15.10
2017-12-27T15:57:09.878Z,22.42
2017-12-27T15:59:37.032Z,19.50
2017-12-27T16:02:04.219Z,17.75
2017-12-27T16:04:30.640Z,21.40
2017-12-27T16:06:57.069Z,21.42
2017-12-27T16:09:23.489Z,20.73
2017-12-27T16:11:49.888Z,19.60
2017-12-27T16:14:16.293Z,19.15
2017-12-27T16:16:42.876Z,18.58
2017-12-27T16:19:10.060Z,17.60
2017-12-27T16:21:37.386Z,16.17
2017-12-27T16:24:03.764Z,17.73
2017-12-27T16:26:30.239Z,21.20
2017-12-27T16:28:56.668Z,17.95
2017-12-27T16:31:23.928Z,18.27
2017-12-27T16:33:51.146Z,15.05
2017-12-27T16:36:17.580Z,14.50
2017-12-27T16:38:43.984Z,14.93
2017-12-27T16:41:10.445Z,15.45
2017-12-27T16:43:36.969Z,17.92
2017-12-27T16:46:03.385Z,17.00
2017-12-27T16:48:29.929Z,16.85
2017-12-27T16:50:57.186Z,17.30
2017-12-27T16:53:23.651Z,17.15
2017-12-27T16:55:50.793Z,17.58
2017-12-27T16:58:17.226Z,17.73
2017-12-27T17:00:43.633Z,18.23
2017-12-27T17:03:10.057Z,18.30
2017-12-27T17:05:36.576Z,18.10
2017-12-27T17:08:02.987Z,20.15
2017-12-27T17:10:29.416Z,19.90
2017-12-27T17:12:55.880Z,20.17
2017-12-27T17:15:22.266Z,18.27
2017-12-27T17:17:49.445Z,16.37
2017-12-27T17:20:15.824Z,23.10
2017-12-27T17:22:42.261Z,18.65
2017-12-27T17:25:08.661Z,17.65
2017-12-27T17:27:35.065Z,16.45
2017-12-27T17:30:01.525Z,17.20
2017-12-27T17:32:27.921Z,17.77
2017-12-27T17:34:54.412Z,17.85
2017-12-27T17:37:20.793Z,15.98
2017-12-27T17:39:47.355Z,17.08
2017-12-27T17:42:13.829Z,16.50
2017-12-27T17:44:40.255Z,17.67
2017-12-27T17:47:06.697Z,19.10
2017-12-27T17:49:33.841Z,31.20
2017-12-27T17:52:00.276Z,31.87
2017-12-27T17:54:26.658Z,20.85
2017-12-27T17:56:53.374Z,20.02
2017-12-27T17:59:19.820Z,19.55
2017-12-27T18:01:46.223Z,19.62
2017-12-27T18:04:13.375Z,20.40
2017-12-27T18:06:40.544Z,22.85
2017-12-27T18:09:06.928Z,22.55
2017-12-27T18:11:33.367Z,22.48
2017-12-27T18:13:59.803Z,17.45
2017-12-27T18:16:26.282Z,24.35
2017-12-27T18:18:52.722Z,25.08
2017-12-27T18:21:19.115Z,23.70
2017-12-27T18:23:46.341Z,25.23
2017-12-27T18:26:12.773Z,25.60
2017-12-27T18:28:39.184Z,26.92
2017-12-27T18:31:05.667Z,22.85
2017-12-27T18:33:33.025Z,20.88
2017-12-27T18:35:59.501Z,21.20
2017-12-27T18:38:25.932Z,17.35
2017-12-27T18:40:52.307Z,13.70
2017-12-27T18:43:19.456Z,19.27
2017-12-27T18:45:46.626Z,20.20
2017-12-27T18:48:13.084Z,22.62
2017-12-27T18:50:39.503Z,24.10
2017-12-27T18:53:05.930Z,10.40
2017-12-27T18:55:32.355Z,8.07
2017-12-27T18:57:58.827Z,20.55
2017-12-27T19:00:25.271Z,13.35
2017-12-27T19:02:51.664Z,6.60
2017-12-27T19:05:18.053Z,9.07
2017-12-27T19:07:44.521Z,9.05
2017-12-27T19:10:11.052Z,9.20
2017-12-27T19:12:37.484Z,7.35
2017-12-27T19:15:03.905Z,7.18
2017-12-27T19:17:31.130Z,6.47
2017-12-27T19:19:57.533Z,4.47
2017-12-27T19:22:23.994Z,3.70
2017-12-27T19:24:50.407Z,3.45
2017-12-27T19:27:16.857Z,4.00
2017-12-27T19:29:43.344Z,5.68
2017-12-27T19:32:09.749Z,5.43
2017-12-27T19:34:36.893Z,9.77
2017-12-27T19:37:04.092Z,6.75
2017-12-27T19:39:30.508Z,8.05
2017-12-27T19:41:56.964Z,8.35
2017-12-27T19:44:23.381Z,5.95
2017-12-27T19:46:49.860Z,6.57
2017-12-27T19:49:16.318Z,22.60
2017-12-27T19:51:43.801Z,11.38
2017-12-27T19:54:11.345Z,8.30
2017-12-27T19:56:38.095Z,9.20
2017-12-27T19:59:04.692Z,9.80
2017-12-27T20:01:32.072Z,12.70
2017-12-27T20:03:58.669Z,8.23
2017-12-27T20:06:25.277Z,7.22
2017-12-27T20:08:51.926Z,12.73
2017-12-27T20:11:18.541Z,8.07
2017-12-27T20:13:45.349Z,7.72
2017-12-27T20:16:12.044Z,7.78
2017-12-27T20:18:38.701Z,7.75
2017-12-27T20:21:05.306Z,5.85
2017-12-27T20:23:31.933Z,8.02
2017-12-27T20:25:58.397Z,7.45
2017-12-27T20:28:24.856Z,8.30
2017-12-27T20:30:52.072Z,5.68
2017-12-27T20:33:18.644Z,5.12
2017-12-27T20:35:45.911Z,5.55
2017-12-27T20:38:12.376Z,7.15
2017-12-27T20:40:38.917Z,7.72
2017-12-27T20:43:05.477Z,9.88
2017-12-27T20:45:32.028Z,10.00
2017-12-27T20:47:59.515Z,9.65
2017-12-27T20:50:26.021Z,16.52
2017-12-27T20:52:53.332Z,11.77
2017-12-27T20:55:19.889Z,6.28
2017-12-27T20:57:46.605Z,6.62
2017-12-27T21:00:13.203Z,6.68
2017-12-27T21:02:39.813Z,7.68
2017-12-27T21:05:07.165Z,9.93
2017-12-27T21:07:34.437Z,8.63
2017-12-27T21:10:01.078Z,10.82
2017-12-27T21:12:27.620Z,5.93
2017-12-27T21:14:54.201Z,8.00
2017-12-27T21:17:20.734Z,9.40
2017-12-27T21:19:47.257Z,8.13
2017-12-27T21:22:13.817Z,8.27
2017-12-27T21:24:41.081Z,8.45
2017-12-27T21:27:08.305Z,7.28
2017-12-27T21:29:34.757Z,8.93
2017-12-27T21:32:01.226Z,8.63
2017-12-27T21:34:27.729Z,8.48
2017-12-27T21:36:54.982Z,11.35
2017-12-27T21:39:22.195Z,8.95
2017-12-27T21:41:48.645Z,7.60
2017-12-27T21:44:15.137Z,8.05
2017-12-27T21:46:41.562Z,8.30
2017-12-27T21:49:14.019Z,7.45
2017-12-27T21:51:41.220Z,8.43
2017-12-27T21:54:07.608Z,6.50
2017-12-27T21:56:34.146Z,7.45
2017-12-27T21:59:06.585Z,6.25
2017-12-27T22:01:38.915Z,6.90
2017-12-27T22:04:05.329Z,8.10
2017-12-27T22:06:31.732Z,10.13
2017-12-27T22:08:58.924Z,7.72
2017-12-27T22:11:25.351Z,9.55
2017-12-27T22:13:51.789Z,8.73
2017-12-27T22:16:18.189Z,8.32
2017-12-27T22:18:45.336Z,8.43
2017-12-27T22:21:12.621Z,7.15
2017-12-27T22:23:39.041Z,8.05
2017-12-27T22:26:05.546Z,8.23
2017-12-27T22:28:32.676Z,6.57
2017-12-27T22:30:59.086Z,2.80
2017-12-27T22:33:25.500Z,5.80
2017-12-27T22:35:51.917Z,5.50
2017-12-27T22:38:18.369Z,5.35
2017-12-27T22:40:44.772Z,6.10
2017-12-27T22:43:11.237Z,7.85
2017-12-27T22:45:37.692Z,5.03
2017-12-27T22:48:04.081Z,7.28
2017-12-27T22:50:30.521Z,6.45
2017-12-27T22:52:56.918Z,3.85
2017-12-27T22:55:24.140Z,5.55
2017-12-27T22:57:50.578Z,6.12
2017-12-27T23:00:16.933Z,2.97
2017-12-27T23:02:44.104Z,4.12
2017-12-27T23:05:10.484Z,2.87
2017-12-27T23:07:36.917Z,3.65
2017-12-27T23:10:03.308Z,4.20
2017-12-27T23:12:29.736Z,3.80
2017-12-27T23:14:56.168Z,3.30
2017-12-27T23:17:22.556Z,2.75
2017-12-27T23:19:48.953Z,3.80
2017-12-27T23:22:15.397Z,3.70
2017-12-27T23:24:41.793Z,6.40
2017-12-27T23:27:08.224Z,3.75
2017-12-27T23:29:34.639Z,4.60
2017-12-27T23:32:01.836Z,4.60
2017-12-27T23:34:28.233Z,4.37
2017-12-27T23:36:54.600Z,6.53
2017-12-27T23:39:21.061Z,6.72
2017-12-27T23:41:47.563Z,6.50
2017-12-27T23:44:14.145Z,5.97
2017-12-27T23:46:41.298Z,6.12
2017-12-27T23:49:08.416Z,10.30
2017-12-27T23:51:34.840Z,7.60
2017-12-27T23:54:01.212Z,7.87
2017-12-27T23:56:28.421Z,8.32
2017-12-27T23:58:54.821Z,5.20
